createdAt,value
2018-10-17T00:02:04.742Z,6.61
2018-10-17T00:07:08.085Z,6.58
2018-10-17T00:12:11.962Z,6.52
2018-10-17T00:17:15.077Z,6.46
2018-10-17T00:22:18.327Z,6.37
2018-10-17T00:27:21.542Z,6.28
2018-10-17T00:32:24.713Z,6.24
2018-10-17T00:37:27.981Z,6.22
2018-10-17T00:42:31.131Z,6.12
2018-10-17T00:47:34.266Z,6.06
2018-10-17T00:52:37.437Z,6.10
2018-10-17T00:57:40.857Z,6.01
2018-10-17T01:02:44.271Z,5.99
2018-10-17T01:07:47.419Z,5.99
2018-10-17T01:12:50.648Z,6.02
2018-10-17T01:17:53.839Z,6.04
2018-10-17T01:22:57.022Z,5.96
2018-10-17T01:28:00.865Z,5.82
2018-10-17T01:33:04.048Z,5.76
2018-10-17T01:38:07.884Z,5.70
2018-10-17T01:43:11.262Z,5.76
2018-10-17T01:48:14.651Z,5.66
2018-10-17T01:53:17.932Z,5.61
2018-10-17T01:58:21.247Z,5.55
2018-10-17T02:03:24.499Z,5.54
2018-10-17T02:08:27.634Z,5.48
2018-10-17T02:13:30.839Z,5.39
2018-10-17T02:18:34.111Z,5.35
2018-10-17T02:23:37.433Z,5.25
2018-10-17T02:28:40.682Z,5.21
2018-10-17T02:33:43.932Z,5.11
2018-10-17T02:38:47.144Z,5.07
2018-10-17T02:43:50.324Z,5.10
2018-10-17T02:48:53.552Z,5.20
2018-10-17T02:53:57.546Z,5.19
2018-10-17T02:59:02.988Z,5.05
2018-10-17T03:04:06.174Z,4.98
2018-10-17T03:09:09.450Z,5.07
2018-10-17T03:14:13.496Z,4.95
2018-10-17T03:19:16.849Z,4.84
2018-10-17T03:24:20.113Z,4.87
2018-10-17T03:29:23.319Z,4.85
2018-10-17T03:34:27.695Z,4.72
2018-10-17T03:39:31.436Z,4.60
2018-10-17T03:44:34.841Z,4.64
2018-10-17T03:49:38.313Z,4.57
2018-10-17T03:54:42.900Z,4.57
2018-10-17T03:59:46.484Z,4.55
2018-10-17T04:04:49.683Z,4.45
2018-10-17T04:09:54.018Z,4.51
2018-10-17T04:14:57.187Z,4.46
2018-10-17T04:20:00.599Z,4.42
2018-10-17T04:25:05.202Z,4.52
2018-10-17T04:30:10.009Z,4.64
2018-10-17T04:35:13.471Z,4.60
2018-10-17T04:40:16.637Z,4.57
2018-10-17T04:45:20.038Z,4.52
2018-10-17T04:50:23.257Z,4.47
2018-10-17T04:55:26.523Z,4.34
2018-10-17T05:00:29.871Z,4.34
2018-10-17T05:05:33.700Z,4.49
2018-10-17T05:10:36.948Z,4.47
2018-10-17T05:15:41.344Z,4.45
2018-10-17T05:20:44.650Z,4.30
2018-10-17T05:25:47.887Z,4.25
2018-10-17T05:30:51.216Z,4.25
2018-10-17T05:35:56.438Z,4.25
2018-10-17T05:40:59.714Z,4.30
2018-10-17T05:46:03.710Z,4.26
2018-10-17T05:51:06.948Z,4.31
2018-10-17T05:56:11.966Z,4.54
2018-10-17T06:01:15.222Z,4.57
2018-10-17T06:06:20.045Z,4.65
2018-10-17T06:11:23.886Z,4.75
2018-10-17T06:16:27.181Z,4.97
2018-10-17T06:21:30.396Z,5.20
2018-10-17T06:26:33.716Z,5.46
2018-10-17T06:31:37.069Z,5.67
2018-10-17T06:36:41.955Z,5.85
2018-10-17T06:41:45.143Z,6.00
2018-10-17T06:46:48.322Z,6.20
2018-10-17T06:51:51.611Z,6.38
2018-10-17T06:56:54.781Z,6.66
2018-10-17T07:01:58.251Z,6.86
2018-10-17T07:07:01.624Z,7.07
2018-10-17T07:12:05.294Z,7.42
2018-10-17T07:17:08.676Z,7.77
2018-10-17T07:22:11.847Z,8.12
2018-10-17T07:27:15.160Z,8.44
2018-10-17T07:32:18.757Z,8.73
2018-10-17T07:37:21.914Z,8.99
2018-10-17T07:42:25.105Z,9.31
2018-10-17T07:47:28.422Z,9.51
2018-10-17T07:52:31.854Z,9.86
2018-10-17T07:57:35.415Z,10.25
2018-10-17T08:02:38.635Z,10.56
2018-10-17T08:07:41.895Z,10.81
2018-10-17T08:12:45.063Z,11.21
2018-10-17T08:17:48.279Z,11.53
2018-10-17T08:22:51.481Z,11.94
2018-10-17T08:27:54.799Z,12.26
2018-10-17T08:32:58.280Z,12.66
2018-10-17T08:38:01.625Z,12.89
2018-10-17T08:43:05.437Z,13.21
2018-10-17T08:48:09.125Z,13.63
2018-10-17T08:53:12.300Z,13.96
2018-10-17T08:58:16.005Z,14.36
2018-10-17T09:03:19.252Z,14.71
2018-10-17T09:08:23.133Z,15.12
2018-10-17T09:13:26.461Z,15.39
2018-10-17T09:18:29.754Z,15.56
2018-10-17T09:23:33.297Z,15.87
2018-10-17T09:28:36.553Z,16.18
2018-10-17T09:33:39.706Z,16.34
2018-10-17T09:38:42.928Z,16.60
2018-10-17T09:43:46.128Z,16.81
2018-10-17T09:48:49.379Z,17.09
2018-10-17T09:53:52.691Z,17.45
2018-10-17T09:58:55.952Z,19.61
2018-10-17T10:03:59.291Z,20.24
2018-10-17T10:09:03.366Z,21.51
2018-10-17T10:14:06.810Z,22.77
2018-10-17T10:19:10.000Z,22.65
2018-10-17T10:24:13.216Z,23.01
2018-10-17T10:29:19.668Z,23.12
2018-10-17T10:34:23.702Z,23.79
2018-10-17T10:39:27.670Z,23.81
2018-10-17T10:44:32.532Z,23.89
2018-10-17T10:49:36.301Z,24.09
2018-10-17T10:54:39.848Z,24.36
2018-10-17T10:59:43.539Z,24.22
2018-10-17T11:04:47.747Z,23.88
2018-10-17T11:09:51.098Z,23.91
2018-10-17T11:14:54.399Z,23.41
2018-10-17T11:19:58.225Z,23.37
2018-10-17T11:25:02.065Z,23.31
2018-10-17T11:30:07.705Z,23.29
2018-10-17T11:35:11.609Z,23.17
2018-10-17T11:40:14.898Z,23.04
2018-10-17T11:45:19.075Z,22.74
2018-10-17T11:50:22.991Z,22.88
2018-10-17T11:55:26.363Z,23.02
2018-10-17T12:00:36.533Z,22.80
2018-10-17T12:05:41.789Z,23.04
2018-10-17T12:10:45.728Z,23.33
2018-10-17T12:15:50.071Z,23.13
2018-10-17T12:20:55.158Z,23.30
2018-10-17T12:25:58.578Z,23.48
2018-10-17T12:31:02.310Z,23.41
2018-10-17T12:36:07.027Z,23.49
2018-10-17T12:41:11.607Z,23.49
2018-10-17T12:46:15.967Z,23.42
2018-10-17T12:51:19.336Z,23.24
2018-10-17T12:56:22.545Z,23.13
2018-10-17T13:01:25.742Z,23.17
2018-10-17T13:06:29.028Z,23.22
2018-10-17T13:11:32.494Z,23.45
2018-10-17T13:16:37.033Z,23.06
2018-10-17T13:21:40.275Z,22.89
2018-10-17T13:26:43.427Z,22.80
2018-10-17T13:31:46.636Z,22.53
2018-10-17T13:36:49.881Z,22.58
2018-10-17T13:41:53.731Z,22.64
2018-10-17T13:46:57.004Z,22.59
2018-10-17T13:52:00.265Z,22.31
2018-10-17T13:57:03.609Z,22.29
2018-10-17T14:02:07.584Z,22.18
2018-10-17T14:07:10.952Z,22.26
2018-10-17T14:12:14.258Z,22.07
2018-10-17T14:17:17.350Z,21.89
2018-10-17T14:22:20.491Z,21.95
2018-10-17T14:27:23.706Z,21.75
2018-10-17T14:32:27.208Z,21.68
2018-10-17T14:37:30.451Z,21.32
2018-10-17T14:42:34.416Z,21.28
2018-10-17T14:47:38.347Z,21.24
2018-10-17T14:52:41.842Z,20.97
2018-10-17T14:57:45.014Z,20.70
2018-10-17T15:02:48.362Z,20.34
2018-10-17T15:07:52.631Z,20.12
2018-10-17T15:12:56.008Z,19.92
2018-10-17T15:17:59.409Z,19.64
2018-10-17T15:23:02.687Z,19.32
2018-10-17T15:28:06.007Z,19.00
2018-10-17T15:33:09.879Z,18.67
2018-10-17T15:38:13.436Z,18.22
2018-10-17T15:43:16.730Z,17.80
2018-10-17T15:48:20.912Z,17.34
2018-10-17T15:53:24.577Z,16.96
2018-10-17T15:58:27.797Z,16.53
2018-10-17T16:03:31.064Z,16.14
2018-10-17T16:08:36.713Z,15.73
2018-10-17T16:13:40.227Z,15.36
2018-10-17T16:18:43.755Z,15.01
2018-10-17T16:23:47.139Z,14.64
2018-10-17T16:28:50.401Z,14.32
2018-10-17T16:33:53.686Z,14.04
2018-10-17T16:38:57.116Z,13.73
2018-10-17T16:44:00.367Z,13.55
2018-10-17T16:49:05.594Z,13.34
2018-10-17T16:54:09.380Z,13.10
2018-10-17T16:59:12.621Z,12.84
2018-10-17T17:04:16.017Z,12.62
2018-10-17T17:09:19.151Z,12.45
2018-10-17T17:14:22.405Z,12.40
2018-10-17T17:19:26.153Z,12.29
2018-10-17T17:24:29.322Z,12.14
2018-10-17T17:29:32.527Z,11.97
2018-10-17T17:34:40.169Z,11.80
2018-10-17T17:39:44.462Z,11.62
2018-10-17T17:44:47.729Z,11.46
2018-10-17T17:49:51.138Z,11.40
2018-10-17T17:54:54.586Z,11.18
2018-10-17T17:59:58.586Z,11.00
2018-10-17T18:05:01.777Z,10.89
2018-10-17T18:10:05.739Z,10.72
2018-10-17T18:15:09.231Z,10.63
2018-10-17T18:20:13.283Z,10.49
2018-10-17T18:25:22.249Z,10.30
2018-10-17T18:30:25.472Z,10.25
2018-10-17T18:35:28.715Z,10.01
2018-10-17T18:40:32.126Z,9.98
2018-10-17T18:45:37.273Z,10.03
2018-10-17T18:50:41.728Z,10.02
2018-10-17T18:55:46.965Z,9.95
2018-10-17T19:00:50.955Z,9.97
2018-10-17T19:05:55.386Z,10.05
2018-10-17T19:10:58.688Z,9.85
2018-10-17T19:16:01.948Z,9.87
2018-10-17T19:21:05.243Z,9.75
2018-10-17T19:26:08.780Z,9.68
2018-10-17T19:31:12.786Z,9.52
2018-10-17T19:36:20.597Z,9.44
2018-10-17T19:41:25.858Z,9.35
2018-10-17T19:46:31.584Z,9.28
2018-10-17T19:51:35.762Z,9.24
2018-10-17T19:56:39.609Z,9.16
2018-10-17T20:01:43.828Z,9.08
2018-10-17T20:06:47.448Z,9.00
2018-10-17T20:11:52.648Z,9.03
2018-10-17T20:16:56.121Z,9.08
2018-10-17T20:21:59.693Z,8.96
2018-10-17T20:27:03.032Z,8.83
2018-10-17T20:32:06.395Z,8.72
2018-10-17T20:37:09.896Z,8.62
2018-10-17T20:42:13.682Z,8.51
2018-10-17T20:47:17.555Z,8.41
2018-10-17T20:52:20.926Z,8.31
2018-10-17T20:57:24.543Z,8.29
2018-10-17T21:02:27.766Z,8.10
2018-10-17T21:07:31.079Z,8.06
2018-10-17T21:12:34.418Z,7.95
2018-10-17T21:17:37.918Z,7.95
2018-10-17T21:22:41.197Z,7.91
2018-10-17T21:27:44.908Z,7.83
2018-10-17T21:32:48.231Z,7.66
2018-10-17T21:37:51.518Z,7.62
2018-10-17T21:42:54.682Z,7.55
2018-10-17T21:47:57.824Z,7.49
2018-10-17T21:53:01.162Z,7.48
2018-10-17T21:58:04.494Z,7.38
2018-10-17T22:03:08.249Z,7.33
2018-10-17T22:08:11.565Z,7.24
2018-10-17T22:13:14.859Z,7.22
2018-10-17T22:18:18.074Z,7.13
2018-10-17T22:23:21.213Z,7.04
2018-10-17T22:28:24.669Z,7.04
2018-10-17T22:33:28.173Z,7.00
2018-10-17T22:38:31.424Z,6.94
2018-10-17T22:43:34.589Z,6.87
2018-10-17T22:48:38.214Z,6.87
2018-10-17T22:53:41.495Z,6.73
2018-10-17T22:58:44.734Z,6.60
2018-10-17T23:03:48.124Z,6.56
2018-10-17T23:08:51.633Z,6.54
2018-10-17T23:13:54.878Z,6.50
2018-10-17T23:18:58.033Z,6.61
2018-10-17T23:24:01.535Z,6.48
2018-10-17T23:29:04.965Z,6.42
2018-10-17T23:34:08.518Z,6.38
2018-10-17T23:39:11.781Z,6.29
2018-10-17T23:44:15.352Z,6.20
2018-10-17T23:49:18.846Z,6.19
2018-10-17T23:54:22.014Z,6.33
2018-10-17T23:59:25.213Z,6.19
